Time;durP1;ratioP1;P1;durP2;ratioP2;P2;SDS_P1;SDS_P2;PMS_P1;PMS_P2;Temp;Humidity;BMP_temperature;BMP_pressure;BME280_temperature;BME280_humidity;BME280_pressure;Samples;Min_cycle;Max_cycle;Signal;HPM_P1;HPM_P2
2022/06/18 00:02:19;;;;;;;3.00;2.80;;;23.80;99.90;;;;;;4949083;28;20556;-88
2022/06/18 00:04:47;;;;;;;3.38;3.03;;;23.80;99.90;;;;;;4948748;28;20226;-88
2022/06/18 00:07:17;;;;;;;3.10;2.90;;;23.80;99.90;;;;;;4948061;29;20217;-87
2022/06/18 00:09:49;;;;;;;2.67;2.47;;;23.80;99.90;;;;;;4946565;28;20230;-88
2022/06/18 00:15:13;;;;;;;3.05;2.85;;;23.90;99.90;;;;;;4951780;28;21038;-88
2022/06/18 00:17:40;;;;;;;2.75;2.53;;;23.80;99.90;;;;;;4949587;28;20194;-86
2022/06/18 00:20:10;;;;;;;2.70;2.50;;;23.70;99.90;;;;;;4949467;28;20221;-87
2022/06/18 00:22:37;;;;;;;3.10;2.90;;;23.60;99.90;;;;;;4949639;29;20214;-90
2022/06/18 00:25:16;;;;;;;3.00;2.80;;;23.50;99.90;;;;;;4949326;28;20221;-90
2022/06/18 00:27:43;;;;;;;2.97;2.72;;;23.50;99.90;;;;;;4950212;28;20225;-86
2022/06/18 00:30:15;;;;;;;2.97;2.78;;;23.40;99.90;;;;;;4948176;28;20233;-86
2022/06/18 00:32:42;;;;;;;2.90;2.70;;;23.40;99.90;;;;;;4947911;28;20217;-86
2022/06/18 00:35:10;;;;;;;2.58;2.38;;;23.40;99.90;;;;;;4947138;28;20723;-86
2022/06/18 00:40:24;;;;;;;3.47;3.17;;;23.50;99.90;;;;;;4961687;28;20308;-74
2022/06/18 00:42:51;;;;;;;3.28;2.70;;;23.50;99.90;;;;;;4966363;28;20716;-76
2022/06/18 00:45:24;;;;;;;3.30;3.10;;;23.50;99.90;;;;;;4960157;28;20220;-75
2022/06/18 00:48:00;;;;;;;3.17;2.97;;;23.50;99.90;;;;;;4963559;28;20206;-76
2022/06/18 00:50:30;;;;;;;3.42;3.20;;;23.50;99.90;;;;;;4969418;28;20240;-76
2022/06/18 00:53:04;;;;;;;2.90;2.70;;;23.40;99.90;;;;;;4967569;28;20221;-74
2022/06/18 00:55:36;;;;;;;3.42;3.20;;;23.40;99.90;;;;;;4966932;28;20233;-74
2022/06/18 00:58:08;;;;;;;3.45;2.67;;;23.40;99.90;;;;;;4963775;28;20197;-76
2022/06/18 01:00:40;;;;;;;3.00;2.80;;;23.30;99.90;;;;;;4964431;28;20653;-75
2022/06/18 01:03:31;;;;;;;3.30;3.00;;;23.30;99.90;;;;;;4969484;28;20712;-74
2022/06/18 01:06:01;;;;;;;3.47;3.22;;;23.30;99.90;;;;;;4963707;28;20241;-76
2022/06/18 01:08:31;;;;;;;3.10;2.90;;;23.20;99.90;;;;;;4958613;28;20206;-76
2022/06/18 01:11:00;;;;;;;3.35;3.15;;;23.20;99.90;;;;;;4966543;28;20213;-76
2022/06/18 01:13:32;;;;;;;3.22;2.92;;;23.20;99.90;;;;;;4971113;28;20691;-76
2022/06/18 01:16:01;;;;;;;3.38;3.03;;;23.20;99.90;;;;;;4965026;28;20706;-76
2022/06/18 01:18:29;;;;;;;2.80;2.60;;;23.10;99.90;;;;;;4967335;28;20209;-77
2022/06/18 01:21:02;;;;;;;3.53;2.80;;;23.10;99.90;;;;;;4965208;28;20222;-76
2022/06/18 01:23:36;;;;;;;2.80;2.60;;;23.10;99.90;;;;;;4969645;28;20246;-76
2022/06/18 01:26:05;;;;;;;3.13;2.92;;;23.10;99.90;;;;;;4961127;28;20233;-76
2022/06/18 01:28:32;;;;;;;3.38;2.90;;;23.10;99.90;;;;;;4968126;28;20201;-74
2022/06/18 01:30:59;;;;;;;2.55;2.45;;;23.00;99.90;;;;;;4963639;28;20226;-75
2022/06/18 01:33:26;;;;;;;2.83;2.63;;;23.00;99.90;;;;;;4966253;28;20232;-76
2022/06/18 01:35:55;;;;;;;2.95;2.75;;;23.00;99.90;;;;;;4964925;28;20610;-76
2022/06/18 01:38:24;;;;;;;2.90;2.70;;;22.90;99.90;;;;;;4969109;28;20696;-76
2022/06/18 01:40:56;;;;;;;3.17;2.97;;;22.80;99.90;;;;;;4959374;28;22163;-75
2022/06/18 01:43:26;;;;;;;2.83;2.70;;;22.80;99.90;;;;;;4967219;28;20333;-76
2022/06/18 01:45:57;;;;;;;3.03;2.67;;;22.70;99.90;;;;;;4965812;28;20233;-76
2022/06/18 01:48:27;;;;;;;2.83;2.63;;;22.70;99.90;;;;;;4962227;28;20210;-75
2022/06/18 01:51:00;;;;;;;3.25;3.05;;;22.70;99.90;;;;;;4964578;28;20237;-76
2022/06/18 01:53:31;;;;;;;2.90;2.70;;;22.70;99.90;;;;;;4963914;28;20240;-76
2022/06/18 01:56:01;;;;;;;3.67;2.80;;;22.60;99.90;;;;;;4966402;28;20225;-77
2022/06/18 01:58:47;;;;;;;3.10;2.90;;;22.60;99.90;;;;;;4962663;28;21621;-77
2022/06/18 02:01:19;;;;;;;3.05;2.85;;;22.60;99.90;;;;;;4968450;28;20731;-76
2022/06/18 02:03:46;;;;;;;2.92;2.72;;;22.50;99.90;;;;;;4966897;28;20229;-77
2022/06/18 02:06:14;;;;;;;2.70;2.50;;;22.50;99.90;;;;;;4966323;28;20958;-76
2022/06/18 02:08:41;;;;;;;3.58;2.67;;;22.40;99.90;;;;;;4967012;28;20198;-77
2022/06/18 02:11:12;;;;;;;2.88;2.67;;;22.40;99.90;;;;;;4966988;28;20213;-77
2022/06/18 02:13:44;;;;;;;2.55;2.35;;;22.40;99.90;;;;;;4964885;28;20218;-74
2022/06/18 02:16:16;;;;;;;3.10;2.83;;;22.30;99.90;;;;;;4962485;28;20704;-77
2022/06/18 02:18:46;;;;;;;2.67;2.50;;;22.20;99.90;;;;;;4971418;28;20204;-76
2022/06/18 02:21:15;;;;;;;3.08;2.78;;;22.20;99.90;;;;;;4959199;28;20224;-75
2022/06/18 02:23:43;;;;;;;2.80;2.60;;;22.20;99.90;;;;;;4967703;28;20573;-75
2022/06/18 02:26:10;;;;;;;2.90;2.70;;;22.10;99.90;;;;;;4967657;28;20225;-74
2022/06/18 02:28:41;;;;;;;3.50;2.97;;;22.20;99.90;;;;;;4964779;28;20213;-76
2022/06/18 02:31:14;;;;;;;3.53;3.22;;;22.10;99.90;;;;;;4962859;28;20218;-74
2022/06/18 02:33:45;;;;;;;2.90;2.70;;;22.10;99.90;;;;;;4985719;23;20346;-70
2022/06/18 02:36:15;;;;;;;3.13;2.92;;;22.10;99.90;;;;;;4968905;28;20233;-70
2022/06/18 02:38:43;;;;;;;2.63;2.42;;;22.10;99.90;;;;;;4965039;28;20202;-70
2022/06/18 02:41:12;;;;;;;3.20;3.00;;;22.10;99.90;;;;;;4968747;28;20236;-69
2022/06/18 02:43:42;;;;;;;3.03;2.80;;;22.10;99.90;;;;;;4970503;28;20204;-69
2022/06/18 02:46:10;;;;;;;3.10;2.90;;;22.00;99.90;;;;;;4970981;28;20236;-69
2022/06/18 02:48:39;;;;;;;4.40;3.03;;;22.00;99.90;;;;;;4967684;28;20732;-70
2022/06/18 02:51:07;;;;;;;3.17;2.97;;;22.00;99.90;;;;;;4970069;28;20216;-70
2022/06/18 02:53:34;;;;;;;3.00;2.80;;;22.00;99.90;;;;;;4961999;28;20205;-70
2022/06/18 02:56:03;;;;;;;2.90;2.70;;;22.00;99.90;;;;;;4969361;28;20707;-70
2022/06/18 02:58:33;;;;;;;3.17;2.97;;;21.90;99.90;;;;;;4965147;28;20209;-70
2022/06/18 03:01:05;;;;;;;3.25;2.80;;;21.90;99.90;;;;;;4969482;28;20224;-71
2022/06/18 03:03:34;;;;;;;3.53;2.80;;;21.90;99.90;;;;;;4960640;28;20205;-69
2022/06/18 03:06:02;;;;;;;3.33;3.03;;;21.90;99.90;;;;;;4966066;28;20232;-70
2022/06/18 03:08:30;;;;;;;3.10;2.80;;;21.90;99.90;;;;;;4962964;28;20201;-69
2022/06/18 03:13:43;;;;;;;3.65;3.13;;;22.00;99.90;;;;;;4962848;28;20273;-69
2022/06/18 03:16:14;;;;;;;3.45;3.20;;;22.10;99.90;;;;;;4977768;28;20230;-70
2022/06/18 03:18:44;;;;;;;3.05;2.85;;;22.10;99.90;;;;;;4972927;28;20201;-69
2022/06/18 03:21:18;;;;;;;3.20;2.90;;;22.10;99.90;;;;;;4971287;28;20232;-70
2022/06/18 03:23:46;;;;;;;3.30;3.00;;;22.10;99.90;;;;;;4969270;28;20601;-70
2022/06/18 03:26:16;;;;;;;3.72;2.97;;;22.00;99.90;;;;;;4969567;28;20217;-70
2022/06/18 03:28:44;;;;;;;3.22;3.03;;;22.10;99.90;;;;;;4968156;28;20270;-69
2022/06/18 03:31:13;;;;;;;3.40;3.20;;;22.20;99.90;;;;;;4964650;28;20222;-70
2022/06/18 03:33:41;;;;;;;3.00;2.80;;;22.20;99.90;;;;;;4968397;28;20216;-70
2022/06/18 03:36:10;;;;;;;2.80;2.60;;;22.20;99.90;;;;;;4970008;28;20292;-74
2022/06/18 03:38:37;;;;;;;3.42;3.03;;;22.20;99.90;;;;;;4965179;28;20201;-74
2022/06/18 03:41:08;;;;;;;3.15;2.90;;;22.20;99.90;;;;;;4970666;28;20225;-75
2022/06/18 03:43:35;;;;;;;3.83;3.13;;;22.20;99.90;;;;;;4967028;28;20232;-75
2022/06/18 03:46:07;;;;;;;3.10;2.90;;;22.30;99.90;;;;;;4965953;28;20222;-74
2022/06/18 03:48:42;;;;;;;2.92;2.72;;;22.30;99.90;;;;;;4964901;28;20276;-75
2022/06/18 03:51:11;;;;;;;3.15;2.78;;;22.40;99.90;;;;;;4960577;28;20232;-74
2022/06/18 03:53:38;;;;;;;2.75;2.55;;;22.40;99.90;;;;;;4965883;28;20624;-75
2022/06/18 03:56:06;;;;;;;2.78;2.58;;;22.40;99.90;;;;;;4965786;28;20222;-72
2022/06/18 03:58:33;;;;;;;3.22;2.92;;;22.30;99.90;;;;;;4965553;28;20731;-74
2022/06/18 04:01:00;;;;;;;2.70;2.50;;;22.30;99.90;;;;;;4968148;28;20237;-75
2022/06/18 04:03:27;;;;;;;3.40;2.40;;;22.30;99.90;;;;;;4977701;28;20256;-74
2022/06/18 04:05:56;;;;;;;3.13;2.90;;;22.30;99.90;;;;;;4963374;28;20236;-74
2022/06/18 04:08:24;;;;;;;2.63;2.38;;;22.20;99.90;;;;;;4970748;28;20201;-74
2022/06/18 04:10:51;;;;;;;2.72;2.53;;;22.10;99.90;;;;;;4965553;28;20723;-74
2022/06/18 04:13:18;;;;;;;3.53;2.70;;;22.00;99.90;;;;;;4967627;28;20193;-74
2022/06/18 04:15:47;;;;;;;2.50;2.30;;;22.00;99.90;;;;;;4967705;28;20750;-74
2022/06/18 04:18:16;;;;;;;2.85;2.38;;;22.00;99.90;;;;;;4967317;28;20194;-74
2022/06/18 04:20:43;;;;;;;2.80;2.60;;;22.00;99.90;;;;;;4969180;28;20779;-75
2022/06/18 04:23:15;;;;;;;3.00;2.80;;;22.10;99.90;;;;;;4972317;28;20228;-75
2022/06/18 04:25:42;;;;;;;2.60;2.40;;;22.10;99.90;;;;;;4970418;28;20225;-74
2022/06/18 04:28:10;;;;;;;2.67;2.47;;;22.10;99.90;;;;;;4973056;28;20205;-75
2022/06/18 04:30:37;;;;;;;2.50;2.40;;;22.20;99.90;;;;;;4968434;28;20244;-74
2022/06/18 04:33:04;;;;;;;2.67;2.47;;;22.20;99.90;;;;;;4968981;28;20201;-74
2022/06/18 04:35:31;;;;;;;2.47;2.28;;;22.30;99.90;;;;;;4971753;28;20229;-75
2022/06/18 04:37:59;;;;;;;2.88;2.35;;;22.20;99.90;;;;;;4973006;28;20629;-74
2022/06/18 04:40:32;;;;;;;2.35;2.25;;;22.30;99.90;;;;;;4971750;28;20197;-75
2022/06/18 04:43:00;;;;;;;2.45;2.25;;;22.30;99.90;;;;;;4972207;28;20288;-74
2022/06/18 04:45:27;;;;;;;2.55;2.35;;;22.40;99.90;;;;;;4969818;28;20312;-75
2022/06/18 04:47:54;;;;;;;2.72;2.53;;;22.40;99.90;;;;;;4981202;28;20300;-74
2022/06/18 04:50:24;;;;;;;2.78;2.40;;;22.50;99.90;;;;;;4973431;28;20211;-75
2022/06/18 04:52:52;;;;;;;2.47;2.30;;;22.60;99.90;;;;;;4973177;28;20208;-75
2022/06/18 04:55:19;;;;;;;2.45;2.25;;;22.80;99.90;;;;;;4968493;28;20217;-75
2022/06/18 04:57:48;;;;;;;3.10;2.53;;;22.90;99.90;;;;;;4969696;28;20601;-75
2022/06/18 05:00:16;;;;;;;2.42;2.33;;;22.90;99.90;;;;;;4970663;28;20204;-74
2022/06/18 05:02:43;;;;;;;2.63;2.42;;;22.90;99.90;;;;;;4969235;28;20217;-75
2022/06/18 05:05:13;;;;;;;2.20;2.10;;;22.90;99.90;;;;;;4968112;28;20225;-74
2022/06/18 05:07:40;;;;;;;2.33;2.13;;;22.90;99.90;;;;;;4970013;28;20233;-74
2022/06/18 05:10:09;;;;;;;2.83;2.47;;;23.00;99.90;;;;;;4970254;28;20217;-73
2022/06/18 05:12:36;;;;;;;2.97;2.65;;;23.00;99.90;;;;;;4970748;28;20233;-74
2022/06/18 05:15:06;;;;;;;2.63;2.42;;;23.10;99.90;;;;;;4972728;28;20217;-74
2022/06/18 05:17:35;;;;;;;2.90;2.70;;;23.10;99.90;;;;;;4970276;28;20743;-74
2022/06/18 05:20:02;;;;;;;2.88;2.60;;;23.10;99.90;;;;;;4968627;28;20568;-74
2022/06/18 05:22:30;;;;;;;4.63;2.65;;;23.00;99.90;;;;;;4971725;28;20245;-74
2022/06/18 05:24:57;;;;;;;4.88;3.15;;;23.00;99.90;;;;;;4971928;28;20624;-74
2022/06/18 05:27:29;;;;;;;2.97;2.53;;;23.10;99.90;;;;;;4958118;28;20706;-75
2022/06/18 05:29:56;;;;;;;4.13;2.97;;;23.20;99.90;;;;;;4967686;28;20209;-75
2022/06/18 05:32:25;;;;;;;2.70;2.50;;;23.30;99.90;;;;;;4972518;28;20214;-75
2022/06/18 05:34:52;;;;;;;2.65;2.45;;;23.30;99.90;;;;;;4979193;28;20312;-75
2022/06/18 05:37:21;;;;;;;3.50;2.47;;;23.40;99.90;;;;;;4966641;28;20300;-75
2022/06/18 05:39:49;;;;;;;2.67;2.47;;;23.40;99.90;;;;;;4963263;28;20830;-74
2022/06/18 05:42:16;;;;;;;3.35;2.17;;;23.50;99.90;;;;;;4964131;28;20233;-74
2022/06/18 05:44:43;;;;;;;2.30;2.15;;;23.60;99.90;;;;;;4964102;28;20217;-76
2022/06/18 05:47:14;;;;;;;2.95;2.47;;;23.70;99.90;;;;;;4957235;28;20222;-75
2022/06/18 05:49:43;;;;;;;2.72;2.53;;;23.80;99.90;;;;;;4964422;28;20197;-75
2022/06/18 05:52:10;;;;;;;2.80;2.60;;;23.70;99.90;;;;;;4965429;28;20237;-75
2022/06/18 05:54:37;;;;;;;3.03;2.72;;;23.70;99.90;;;;;;4968904;28;20479;-76
2022/06/18 05:57:05;;;;;;;3.60;2.95;;;23.70;99.90;;;;;;4971682;28;20225;-75
2022/06/18 05:59:33;;;;;;;3.38;3.08;;;23.70;99.90;;;;;;4970572;28;20202;-76
2022/06/18 06:02:00;;;;;;;2.88;2.67;;;23.70;99.90;;;;;;4969505;28;20225;-75
2022/06/18 06:04:29;;;;;;;2.53;2.33;;;23.70;99.90;;;;;;4971769;28;20715;-75
2022/06/18 06:06:58;;;;;;;3.35;2.78;;;23.80;99.90;;;;;;4965638;28;20298;-75
2022/06/18 06:12:11;;;;;;;3.33;2.45;;;23.90;99.90;;;;;;4972542;28;20378;-76
2022/06/18 06:14:39;;;;;;;4.13;2.60;;;24.00;99.90;;;;;;4968938;28;20225;-76
2022/06/18 06:17:11;;;;;;;2.53;2.33;;;24.10;99.90;;;;;;4966769;28;20221;-76
2022/06/18 06:19:39;;;;;;;2.63;2.42;;;24.10;99.90;;;;;;4970074;28;20198;-75
2022/06/18 06:22:07;;;;;;;2.65;2.40;;;24.20;99.90;;;;;;4971529;28;20218;-75
2022/06/18 06:24:34;;;;;;;2.67;2.53;;;24.30;99.90;;;;;;4971881;28;20229;-74
2022/06/18 06:27:01;;;;;;;2.95;2.60;;;24.30;99.90;;;;;;4967308;28;20240;-74
2022/06/18 06:29:29;;;;;;;3.05;2.78;;;24.50;99.90;;;;;;4969335;28;20198;-76
2022/06/18 06:31:56;;;;;;;3.92;2.85;;;24.50;99.90;;;;;;4969156;28;20248;-74
2022/06/18 06:34:23;;;;;;;3.33;2.60;;;24.40;99.90;;;;;;4969475;28;20225;-75
2022/06/18 06:36:51;;;;;;;3.90;2.70;;;24.40;99.90;;;;;;4967962;28;20237;-75
2022/06/18 06:39:19;;;;;;;2.70;2.50;;;24.30;99.90;;;;;;4968907;28;20229;-75
2022/06/18 06:41:46;;;;;;;3.05;2.70;;;24.40;99.90;;;;;;4967325;28;20248;-75
2022/06/18 06:44:14;;;;;;;4.57;3.13;;;24.50;99.90;;;;;;4970567;28;20222;-74
2022/06/18 06:46:41;;;;;;;3.92;3.15;;;24.30;99.90;;;;;;4968462;28;20221;-75
2022/06/18 06:49:08;;;;;;;2.97;2.70;;;24.40;99.90;;;;;;4969345;28;20206;-75
2022/06/18 06:51:38;;;;;;;2.72;2.53;;;24.50;99.90;;;;;;4968676;28;20789;-75
2022/06/18 06:54:05;;;;;;;2.35;2.20;;;24.70;99.90;;;;;;4968291;28;20221;-75
2022/06/18 06:59:18;;;;;;;3.17;2.88;;;25.00;99.90;;;;;;4964530;28;20715;-75
2022/06/18 07:01:45;;;;;;;3.60;2.50;;;25.00;99.90;;;;;;4968958;28;20757;-74
2022/06/18 07:04:13;;;;;;;2.38;2.20;;;25.10;99.90;;;;;;4969116;28;20221;-74
2022/06/18 07:06:41;;;;;;;3.40;2.10;;;25.00;99.90;;;;;;4968124;28;20422;-74
2022/06/18 07:09:09;;;;;;;3.15;2.10;;;25.10;99.90;;;;;;4967296;28;20201;-75
2022/06/18 07:11:38;;;;;;;3.00;2.25;;;25.20;99.90;;;;;;4962160;28;20229;-75
2022/06/18 07:14:06;;;;;;;3.47;2.40;;;25.20;99.90;;;;;;4966646;28;20317;-75
2022/06/18 07:16:33;;;;;;;2.70;2.50;;;25.30;99.90;;;;;;4971044;28;20782;-75
2022/06/18 07:19:00;;;;;;;3.05;2.35;;;25.30;99.90;;;;;;4966142;28;20197;-75
2022/06/18 07:21:28;;;;;;;2.58;2.38;;;25.40;99.90;;;;;;4970427;28;20229;-74
2022/06/18 07:23:55;;;;;;;2.72;2.33;;;25.40;99.90;;;;;;4964749;28;20226;-75
2022/06/18 07:26:23;;;;;;;4.07;2.55;;;25.60;99.90;;;;;;4966621;28;20259;-75
2022/06/18 07:28:52;;;;;;;2.42;2.15;;;25.70;99.90;;;;;;4968678;28;20751;-75
2022/06/18 07:31:25;;;;;;;2.45;2.20;;;25.80;99.90;;;;;;4969357;28;20228;-75
2022/06/18 07:33:52;;;;;;;6.03;2.88;;;25.90;99.90;;;;;;4964499;28;20268;-75
2022/06/18 07:36:20;;;;;;;2.78;2.58;;;26.00;99.90;;;;;;4963469;28;20596;-76
2022/06/18 07:38:47;;;;;;;2.90;2.60;;;26.10;99.90;;;;;;4965369;28;20234;-75
2022/06/18 07:41:16;;;;;;;2.60;2.40;;;26.20;99.90;;;;;;4967319;28;20701;-75
2022/06/18 07:43:47;;;;;;;3.35;2.33;;;26.20;99.90;;;;;;4968534;28;20220;-74
2022/06/18 07:46:15;;;;;;;2.58;2.38;;;26.40;99.90;;;;;;4969820;28;20232;-75
2022/06/18 07:48:43;;;;;;;2.92;2.63;;;26.50;99.90;;;;;;4969730;28;20248;-76
2022/06/18 07:51:12;;;;;;;2.30;2.10;;;26.50;99.90;;;;;;4968383;28;20893;-75
2022/06/18 07:53:39;;;;;;;4.05;2.30;;;26.60;99.90;;;;;;4960899;28;20201;-76
2022/06/18 07:56:07;;;;;;;3.13;2.83;;;26.70;99.90;;;;;;4967020;28;20201;-77
2022/06/18 07:58:35;;;;;;;4.65;2.90;;;26.70;99.90;;;;;;4965987;28;20225;-77
2022/06/18 08:01:02;;;;;;;4.25;2.30;;;26.80;99.90;;;;;;4968513;28;20607;-76
2022/06/18 08:03:31;;;;;;;3.13;2.53;;;26.90;99.90;;;;;;4968570;28;20217;-78
2022/06/18 08:05:58;;;;;;;4.15;2.60;;;26.90;99.90;;;;;;4969317;28;20220;-76
2022/06/18 08:08:26;;;;;;;2.55;2.35;;;26.90;99.90;;;;;;4966528;28;20193;-77
2022/06/18 08:10:54;;;;;;;5.22;3.03;;;26.90;99.90;;;;;;4966927;28;20229;-76
2022/06/18 08:13:22;;;;;;;2.47;2.28;;;27.10;99.90;;;;;;4966284;28;20304;-75
2022/06/18 08:15:49;;;;;;;2.55;2.35;;;27.10;99.90;;;;;;4966896;28;20221;-76
2022/06/18 08:18:16;;;;;;;2.92;2.67;;;27.20;99.90;;;;;;4964428;28;20226;-78
2022/06/18 08:20:45;;;;;;;2.90;2.60;;;27.30;99.90;;;;;;4967799;28;20204;-77
2022/06/18 08:23:13;;;;;;;2.65;2.35;;;27.30;99.90;;;;;;4964897;28;20232;-77
2022/06/18 08:25:42;;;;;;;3.25;2.47;;;27.40;99.90;;;;;;4967938;28;20221;-76
2022/06/18 08:28:11;;;;;;;2.63;2.40;;;27.40;99.90;;;;;;4963795;28;20225;-77
2022/06/18 08:30:40;;;;;;;3.55;2.40;;;27.50;99.90;;;;;;4961276;28;20201;-77
2022/06/18 08:33:08;;;;;;;2.45;2.25;;;27.40;99.90;;;;;;4963414;28;20224;-77
2022/06/18 08:35:37;;;;;;;2.30;2.05;;;27.50;99.90;;;;;;4970787;23;20290;-87
2022/06/18 08:38:07;;;;;;;2.50;2.30;;;27.60;99.90;;;;;;4967307;28;20232;-87
2022/06/18 08:40:50;;;;;;;2.85;2.15;;;27.80;99.90;;;;;;4962004;28;20252;-87
2022/06/18 08:43:37;;;;;;;2.92;2.10;;;27.90;99.90;;;;;;4964178;28;20228;-88
2022/06/18 08:46:12;;;;;;;2.60;2.40;;;28.00;99.90;;;;;;4961298;28;20289;-88
2022/06/18 08:49:08;;;;;;;2.95;2.70;;;28.20;99.90;;;;;;4965110;28;20225;-88
2022/06/18 08:51:44;;;;;;;2.50;2.30;;;28.40;99.90;;;;;;4963019;28;20237;-88
2022/06/18 08:54:27;;;;;;;2.35;2.15;;;28.30;99.90;;;;;;4959791;28;20236;-88
2022/06/18 08:57:01;;;;;;;2.63;2.42;;;28.10;99.90;;;;;;4960078;28;20765;-87
2022/06/18 08:59:38;;;;;;;2.92;2.63;;;28.30;99.90;;;;;;4964381;28;20198;-86
2022/06/18 09:02:18;;;;;;;2.30;2.10;;;28.30;99.90;;;;;;4962920;28;20252;-87
2022/06/18 09:04:57;;;;;;;2.50;2.30;;;28.30;99.90;;;;;;4961589;28;20217;-88
2022/06/18 09:07:45;;;;;;;3.13;2.42;;;28.40;99.90;;;;;;4959428;28;20228;-88
2022/06/18 09:10:23;;;;;;;2.40;2.20;;;28.50;99.90;;;;;;4966735;28;20680;-87
2022/06/18 09:12:53;;;;;;;2.60;2.40;;;28.40;99.90;;;;;;4965815;28;20228;-86
2022/06/18 09:15:25;;;;;;;3.63;2.22;;;28.50;99.90;;;;;;4963795;28;20605;-86
2022/06/18 09:17:57;;;;;;;2.60;2.38;;;28.50;99.80;;;;;;4967592;28;21168;-88
2022/06/18 09:20:28;;;;;;;3.80;2.10;;;28.50;99.00;;;;;;4969966;28;20206;-86
2022/06/18 09:22:57;;;;;;;2.30;2.10;;;28.60;99.60;;;;;;4964318;28;20221;-86
2022/06/18 09:25:30;;;;;;;2.35;2.15;;;28.80;99.40;;;;;;4965165;28;20198;-86
2022/06/18 09:28:03;;;;;;;2.92;2.63;;;29.00;98.40;;;;;;4964206;28;20763;-87
2022/06/18 09:30:35;;;;;;;2.35;2.15;;;29.10;98.70;;;;;;4966874;28;20197;-86
2022/06/18 09:33:07;;;;;;;2.08;1.98;;;29.20;97.90;;;;;;4961523;28;20629;-86
2022/06/18 09:35:40;;;;;;;2.80;2.35;;;29.30;98.20;;;;;;4964410;28;20230;-85
2022/06/18 09:38:13;;;;;;;2.85;2.40;;;29.50;98.00;;;;;;4965775;28;20256;-86
2022/06/18 09:40:50;;;;;;;2.72;2.53;;;29.70;97.70;;;;;;4965461;28;20225;-85
2022/06/18 09:43:27;;;;;;;2.67;2.47;;;29.70;97.60;;;;;;4962814;28;20235;-85
2022/06/18 09:45:59;;;;;;;3.35;2.53;;;29.70;97.10;;;;;;4966068;28;20794;-86
2022/06/18 09:48:26;;;;;;;3.10;2.80;;;29.60;97.80;;;;;;4965793;28;20221;-85
2022/06/18 09:50:57;;;;;;;3.38;2.70;;;29.70;98.30;;;;;;4965276;28;20221;-86
2022/06/18 09:53:29;;;;;;;3.08;2.88;;;29.50;98.70;;;;;;4966344;28;20221;-85
2022/06/18 09:56:03;;;;;;;3.65;3.00;;;29.70;99.80;;;;;;4966065;28;20260;-85
2022/06/18 09:58:34;;;;;;;3.95;3.38;;;29.80;99.20;;;;;;4965982;28;20237;-85
2022/06/18 10:01:02;;;;;;;4.78;3.30;;;29.70;99.90;;;;;;4958409;28;20194;-87
2022/06/18 10:09:08;;;;;;;3.13;2.92;;;29.60;99.90;;;;;;4964050;28;20269;-85
2022/06/18 10:11:38;;;;;;;3.45;2.83;;;29.60;99.90;;;;;;4964343;28;20623;-88
2022/06/18 10:14:10;;;;;;;3.50;2.83;;;29.70;99.90;;;;;;4969970;28;20257;-88
2022/06/18 10:16:49;;;;;;;4.00;2.95;;;29.70;99.80;;;;;;4964925;28;20225;-89
2022/06/18 10:19:27;;;;;;;2.92;2.50;;;29.80;99.90;;;;;;4963083;28;20225;-90
2022/06/18 10:21:59;;;;;;;3.45;3.15;;;29.90;99.50;;;;;;4963782;28;20647;-88
2022/06/18 10:24:34;;;;;;;6.00;3.95;;;30.00;99.90;;;;;;4963986;28;20222;-89
2022/06/18 10:27:09;;;;;;;3.80;3.47;;;30.00;99.90;;;;;;4962518;28;20812;-87
2022/06/18 10:29:46;;;;;;;4.10;3.45;;;30.00;99.90;;;;;;4964949;28;20209;-87
2022/06/18 10:32:27;;;;;;;3.47;3.28;;;30.00;99.90;;;;;;4963576;28;20225;-87
2022/06/18 10:35:16;;;;;;;3.97;3.67;;;30.10;99.90;;;;;;4964533;28;20209;-87
2022/06/18 10:37:57;;;;;;;4.88;3.90;;;30.20;99.90;;;;;;4962626;28;20234;-87
2022/06/18 10:40:34;;;;;;;3.80;3.40;;;30.30;99.90;;;;;;4963120;28;20228;-87
2022/06/18 10:43:16;;;;;;;3.63;3.33;;;30.60;99.90;;;;;;4963918;28;20234;-88
2022/06/18 10:45:48;;;;;;;5.53;4.35;;;31.00;99.90;;;;;;4961658;28;20229;-85
2022/06/18 10:48:18;;;;;;;4.30;4.00;;;30.90;99.90;;;;;;4963261;28;20228;-88
2022/06/18 10:50:49;;;;;;;4.68;3.67;;;30.80;99.90;;;;;;4966178;28;20850;-89
2022/06/18 10:53:18;;;;;;;4.25;3.85;;;30.80;99.90;;;;;;4961451;28;20221;-87
2022/06/18 10:55:57;;;;;;;3.88;3.58;;;30.80;99.90;;;;;;4963351;28;20209;-87
2022/06/18 10:58:25;;;;;;;3.80;3.50;;;31.00;99.90;;;;;;4968543;28;20879;-88
2022/06/18 11:00:58;;;;;;;4.30;3.88;;;31.10;99.90;;;;;;4962868;28;20205;-87
2022/06/18 11:03:29;;;;;;;3.60;3.30;;;31.00;99.90;;;;;;4960044;28;20695;-87
2022/06/18 11:05:57;;;;;;;3.70;3.40;;;31.20;99.90;;;;;;4966454;28;20189;-88
2022/06/18 11:08:27;;;;;;;4.50;3.95;;;31.30;99.90;;;;;;4967959;28;20226;-88
2022/06/18 11:10:57;;;;;;;4.15;3.83;;;31.40;99.90;;;;;;4963762;28;20374;-88
2022/06/18 11:13:35;;;;;;;4.50;4.10;;;31.40;99.40;;;;;;4967798;28;20237;-88
2022/06/18 11:16:21;;;;;;;3.95;3.30;;;31.30;99.90;;;;;;4963969;28;20728;-89
2022/06/18 11:18:51;;;;;;;3.95;3.60;;;31.40;99.90;;;;;;4962917;28;20272;-89
2022/06/18 11:21:25;;;;;;;4.13;3.50;;;31.60;99.90;;;;;;4962033;28;20201;-90
2022/06/18 11:23:56;;;;;;;3.60;3.30;;;31.50;99.90;;;;;;4966347;28;20225;-90
2022/06/18 11:26:26;;;;;;;3.03;2.83;;;31.70;99.90;;;;;;4962150;28;20918;-90
2022/06/18 11:28:57;;;;;;;3.60;3.30;;;32.30;99.90;;;;;;4962447;28;20230;-93
2022/06/18 11:31:29;;;;;;;4.00;3.60;;;32.30;98.80;;;;;;4964279;28;22184;-89
2022/06/18 11:34:02;;;;;;;5.97;3.30;;;32.40;98.50;;;;;;4969521;28;20708;-89
2022/06/18 11:36:37;;;;;;;3.30;3.00;;;32.40;98.50;;;;;;4964936;28;20589;-88
2022/06/18 11:39:05;;;;;;;3.50;3.20;;;32.40;97.10;;;;;;4961262;28;20252;-87
2022/06/18 11:41:38;;;;;;;3.67;3.38;;;32.40;97.20;;;;;;4965165;28;20266;-86
2022/06/18 11:44:15;;;;;;;7.70;3.90;;;32.20;97.30;;;;;;4963556;28;20236;-87
2022/06/18 11:46:47;;;;;;;4.95;4.07;;;32.00;97.00;;;;;;4967288;28;20290;-89
2022/06/18 11:49:20;;;;;;;4.18;3.70;;;31.80;97.80;;;;;;4966169;28;20818;-89
2022/06/18 11:51:55;;;;;;;5.05;3.78;;;31.70;98.00;;;;;;4967012;28;20198;-89
2022/06/18 11:54:28;;;;;;;5.28;3.25;;;31.80;97.50;;;;;;4964403;28;20280;-89
2022/06/18 11:57:01;;;;;;;4.40;3.85;;;31.80;97.50;;;;;;4968239;28;20237;-89
2022/06/18 11:59:37;;;;;;;5.30;3.90;;;31.80;97.40;;;;;;4963801;28;20203;-90
2022/06/18 12:02:10;;;;;;;4.40;3.90;;;31.80;97.60;;;;;;4965605;28;20272;-89
2022/06/18 12:04:42;;;;;;;5.10;3.42;;;31.80;97.30;;;;;;4967804;28;20214;-88
2022/06/18 12:07:18;;;;;;;3.70;3.33;;;31.90;97.30;;;;;;4967135;28;20229;-89
2022/06/18 12:09:45;;;;;;;4.13;3.50;;;32.00;96.70;;;;;;4969000;28;20197;-90
2022/06/18 12:12:48;;;;;;;4.38;3.60;;;31.80;96.20;;;;;;4969416;28;20232;-89
2022/06/18 12:15:24;;;;;;;7.28;3.13;;;32.00;96.50;;;;;;4966254;28;20627;-90
2022/06/18 12:17:55;;;;;;;4.28;3.20;;;32.10;96.00;;;;;;4962924;28;20734;-89
2022/06/18 12:20:57;;;;;;;5.18;3.80;;;32.10;95.70;;;;;;4968050;28;20316;-88
2022/06/18 12:23:33;;;;;;;6.88;3.83;;;32.30;94.40;;;;;;4964576;28;20271;-90
2022/06/18 12:26:05;;;;;;;5.60;3.42;;;32.40;95.50;;;;;;4964349;28;20300;-87
2022/06/18 12:28:41;;;;;;;4.50;3.22;;;32.40;94.40;;;;;;4969375;28;20221;-89
2022/06/18 12:31:13;;;;;;;6.70;3.33;;;32.40;95.50;;;;;;4969029;28;20294;-89
2022/06/18 12:33:49;;;;;;;4.85;3.00;;;32.50;95.40;;;;;;4969039;28;20225;-90
2022/06/18 12:36:24;;;;;;;4.38;2.90;;;32.60;94.20;;;;;;4963845;28;20208;-87
2022/06/18 12:39:00;;;;;;;6.55;3.28;;;32.70;94.10;;;;;;4966290;28;20220;-88
2022/06/18 12:41:39;;;;;;;4.50;3.40;;;32.80;94.30;;;;;;4968901;28;20571;-85
2022/06/18 12:44:30;;;;;;;4.70;3.40;;;32.80;94.60;;;;;;4971880;28;20311;-86
2022/06/18 12:47:04;;;;;;;3.85;3.00;;;32.80;92.40;;;;;;4970047;28;20241;-87
2022/06/18 12:49:36;;;;;;;4.90;3.42;;;32.90;93.90;;;;;;4969849;28;20207;-86
2022/06/18 12:52:12;;;;;;;3.80;2.83;;;32.90;92.40;;;;;;4971960;28;20229;-86
2022/06/18 12:54:52;;;;;;;7.15;3.08;;;32.90;92.50;;;;;;4972077;28;20189;-86
2022/06/18 12:57:28;;;;;;;4.78;3.10;;;33.10;92.70;;;;;;4966576;28;20228;-86
2022/06/18 13:00:03;;;;;;;4.47;3.15;;;33.00;93.30;;;;;;4967845;28;20198;-86
2022/06/18 13:02:51;;;;;;;8.38;3.72;;;33.20;93.70;;;;;;4967983;28;20312;-86
2022/06/18 13:05:33;;;;;;;4.80;3.15;;;33.20;91.80;;;;;;4971542;28;20310;-86
2022/06/18 13:08:12;;;;;;;5.20;2.88;;;33.40;91.80;;;;;;4964437;28;20221;-84
2022/06/18 13:10:56;;;;;;;6.90;2.75;;;33.50;91.60;;;;;;4971513;28;20586;-86
2022/06/18 13:13:33;;;;;;;6.18;2.95;;;33.50;90.90;;;;;;4970060;28;20621;-86
2022/06/18 13:16:05;;;;;;;6.35;3.03;;;33.50;90.30;;;;;;4972241;28;20200;-86
2022/06/18 13:18:39;;;;;;;5.18;3.13;;;33.40;90.10;;;;;;4963284;28;20792;-86
2022/06/18 13:21:09;;;;;;;4.30;2.85;;;33.40;90.00;;;;;;4969370;28;20755;-87
2022/06/18 13:29:18;;;;;;;6.13;3.03;;;33.50;90.00;;;;;;4972753;28;20229;-88
2022/06/18 13:31:58;;;;;;;9.80;2.80;;;33.70;90.40;;;;;;4970770;28;20209;-88
2022/06/18 13:34:36;;;;;;;8.30;3.58;;;33.80;89.10;;;;;;4963255;28;20226;-87